Decoded Metar for LFGJ (DOLE in FRANCE) (IATA:DLE) | Meteo·Mobile Aviation Weather
aviador You're here:

LFGJ Decoded Metar

DOLE in FRANCE
Report Time2018-08-21 16:00:00
UTC Time2018-08-21 16:07:31
Flight Rules vfr VFR
Wind340° at 08 kt
W.Decomp.*RWY 05: 2.7 kt HW 7.5 kt LCW
W.Rank340° ranks 19
Current wind is above 340° avg. (5.9)
Visibility9999 m
Phenomena:N/A
Clouds:N/A
Expected CloudBase > 6,000 ft AGL from Temp-Dew spread
CeilingNone
Temp30°C (ISA +16)
Dew Point15°C (40% RH)
Heat Index29.7°C
AAT28.7°C
QNH1016 hPa
Density Alt2,635 ft
Elevation643 ft
Report Wrong Elevation
Raw Report
METAR LFGJ 211600Z AUTO 34008KT CAVOK 30/15 Q1016 NOSIG=

Extra information for LFGJ:More info

Metar Taf Metar & Taf Last 4 Metars F.Rules Stats Wind Profile Meteogram Temp Stats Airport Information Weather charts Add Link Nearby VenuesMetar ALERT Operation Metar Decoded Social comments